createdAt,value
2017-09-05T00:00:19.039Z,6.97
2017-09-05T00:02:47.884Z,6.53
2017-09-05T00:05:16.724Z,6.25
2017-09-05T00:07:49.529Z,6.47
2017-09-05T00:10:20.011Z,6.32
2017-09-05T00:12:48.682Z,6.12
2017-09-05T00:15:18.815Z,6.35
2017-09-05T00:20:54.249Z,6.72
2017-09-05T00:23:22.934Z,6.80
2017-09-05T00:25:51.583Z,6.40
2017-09-05T00:28:21.125Z,6.20
2017-09-05T00:30:50.107Z,5.95
2017-09-05T00:33:18.965Z,6.20
2017-09-05T00:35:47.808Z,6.53
2017-09-05T00:38:16.655Z,6.50
2017-09-05T00:40:45.507Z,5.87
2017-09-05T00:43:14.176Z,6.37
2017-09-05T00:45:42.835Z,6.35
2017-09-05T00:48:11.680Z,6.65
2017-09-05T00:50:40.172Z,6.25
2017-09-05T00:53:08.680Z,6.70
2017-09-05T00:55:37.182Z,6.25
2017-09-05T00:58:05.828Z,6.62
2017-09-05T01:00:34.676Z,6.00
2017-09-05T01:03:03.529Z,6.22
2017-09-05T01:05:32.046Z,6.60
2017-09-05T01:08:00.547Z,6.15
2017-09-05T01:10:29.393Z,6.30
2017-09-05T01:12:57.907Z,5.97
2017-09-05T01:15:26.562Z,6.53
2017-09-05T01:17:55.402Z,7.40
2017-09-05T01:20:23.918Z,6.47
2017-09-05T01:22:52.426Z,6.10
2017-09-05T01:25:21.282Z,5.85
2017-09-05T01:27:50.120Z,6.30
2017-09-05T01:30:18.768Z,5.82
2017-09-05T01:32:47.611Z,6.80
2017-09-05T01:35:16.465Z,5.95
2017-09-05T01:37:45.309Z,6.62
2017-09-05T01:40:14.158Z,6.45
2017-09-05T01:42:43.012Z,6.37
2017-09-05T01:45:11.867Z,6.80
2017-09-05T01:47:40.717Z,6.60
2017-09-05T01:50:09.584Z,6.22
2017-09-05T01:52:38.445Z,6.75
2017-09-05T01:55:07.297Z,7.45
2017-09-05T01:57:36.159Z,7.22
2017-09-05T02:00:04.674Z,7.32
2017-09-05T02:02:33.520Z,7.32
2017-09-05T02:05:02.362Z,6.80
2017-09-05T02:07:31.222Z,7.80
2017-09-05T02:10:00.086Z,6.68
2017-09-05T02:12:28.938Z,7.18
2017-09-05T02:14:57.794Z,6.40
2017-09-05T02:17:26.712Z,7.07
2017-09-05T02:19:55.589Z,6.65
2017-09-05T02:22:24.427Z,6.25
2017-09-05T02:24:53.265Z,7.65
2017-09-05T02:27:22.115Z,7.25
2017-09-05T02:29:50.953Z,6.78
2017-09-05T02:32:19.797Z,7.55
2017-09-05T02:34:48.641Z,7.22
2017-09-05T02:37:17.475Z,7.35
2017-09-05T02:39:46.316Z,7.70
2017-09-05T02:42:15.169Z,7.00
2017-09-05T02:44:44.008Z,6.65
2017-09-05T02:47:12.857Z,7.47
2017-09-05T02:49:41.722Z,7.22
2017-09-05T02:52:10.574Z,7.10
2017-09-05T02:54:39.412Z,6.35
2017-09-05T02:57:08.262Z,6.80
2017-09-05T02:59:37.117Z,7.93
2017-09-05T03:02:05.961Z,7.20
2017-09-05T03:04:34.821Z,8.15
2017-09-05T03:07:03.675Z,7.60
2017-09-05T03:09:32.517Z,6.90
2017-09-05T03:12:01.358Z,7.30
2017-09-05T03:14:30.209Z,7.50
2017-09-05T03:16:59.065Z,7.65
2017-09-05T03:19:27.912Z,7.25
2017-09-05T03:21:56.874Z,6.95
2017-09-05T03:24:25.712Z,6.43
2017-09-05T03:26:54.557Z,6.85
2017-09-05T03:29:23.393Z,7.53
2017-09-05T03:31:52.244Z,7.50
2017-09-05T03:34:21.103Z,7.97
2017-09-05T03:36:49.954Z,7.15
2017-09-05T03:39:19.564Z,7.15
2017-09-05T03:41:49.183Z,7.28
2017-09-05T03:44:18.037Z,7.75
2017-09-05T03:46:46.898Z,6.55
2017-09-05T03:49:15.732Z,7.93
2017-09-05T03:51:44.576Z,7.70
2017-09-05T03:54:13.420Z,7.15
2017-09-05T03:56:42.260Z,7.18
2017-09-05T03:59:11.102Z,7.32
2017-09-05T04:01:39.953Z,6.90
2017-09-05T04:04:08.812Z,6.75
2017-09-05T04:06:37.673Z,8.15
2017-09-05T04:09:06.542Z,7.25
2017-09-05T04:11:35.396Z,7.80
2017-09-05T04:14:04.248Z,8.20
2017-09-05T04:16:33.090Z,6.72
2017-09-05T04:19:01.953Z,7.15
2017-09-05T04:21:30.820Z,7.05
2017-09-05T04:23:59.664Z,7.90
2017-09-05T04:26:28.523Z,7.00
2017-09-05T04:28:57.375Z,7.62
2017-09-05T04:31:26.232Z,8.45
2017-09-05T04:33:55.077Z,7.93
2017-09-05T04:36:23.915Z,8.38
2017-09-05T04:38:52.740Z,7.25
2017-09-05T04:41:21.579Z,7.07
2017-09-05T04:43:50.480Z,8.05
2017-09-05T04:46:19.314Z,7.82
2017-09-05T04:48:48.224Z,7.30
2017-09-05T04:51:17.068Z,8.10
2017-09-05T04:53:45.957Z,9.88
2017-09-05T04:56:14.797Z,7.18
2017-09-05T04:58:44.414Z,8.45
2017-09-05T05:01:13.268Z,9.05
2017-09-05T05:03:42.114Z,6.93
2017-09-05T05:06:10.977Z,8.15
2017-09-05T05:08:39.834Z,7.72
2017-09-05T05:11:08.692Z,7.95
2017-09-05T05:13:37.545Z,8.07
2017-09-05T05:16:06.408Z,8.30
2017-09-05T05:18:35.287Z,8.15
2017-09-05T05:21:04.143Z,9.07
2017-09-05T05:23:33.036Z,7.93
2017-09-05T05:26:01.886Z,7.70
2017-09-05T05:28:30.740Z,8.13
2017-09-05T05:30:59.594Z,8.15
2017-09-05T05:33:28.453Z,7.87
2017-09-05T05:35:57.288Z,8.40
2017-09-05T05:38:26.123Z,7.62
2017-09-05T05:40:55.001Z,8.00
2017-09-05T05:43:23.866Z,8.23
2017-09-05T05:45:52.758Z,8.75
2017-09-05T05:48:22.577Z,8.32
2017-09-05T05:50:51.442Z,8.35
2017-09-05T05:53:20.302Z,8.65
2017-09-05T05:55:49.159Z,8.50
2017-09-05T05:58:18.029Z,8.40
2017-09-05T06:00:46.885Z,7.75
2017-09-05T06:03:15.750Z,8.18
2017-09-05T06:05:44.609Z,7.93
2017-09-05T06:08:13.451Z,7.37
2017-09-05T06:10:42.313Z,7.95
2017-09-05T06:13:11.173Z,7.30
2017-09-05T06:15:40.016Z,7.18
2017-09-05T06:18:08.876Z,7.57
2017-09-05T06:20:38.610Z,7.47
2017-09-05T06:23:08.234Z,7.28
2017-09-05T06:28:30.575Z,7.53
2017-09-05T06:30:59.428Z,7.53
2017-09-05T06:33:28.305Z,8.70
2017-09-05T06:35:57.219Z,7.18
2017-09-05T06:38:26.059Z,7.30
2017-09-05T06:40:54.913Z,7.15
2017-09-05T06:43:23.773Z,7.57
2017-09-05T06:45:52.663Z,8.23
2017-09-05T06:48:21.517Z,7.50
2017-09-05T06:50:50.381Z,7.55
2017-09-05T06:53:19.219Z,7.20
2017-09-05T06:55:48.081Z,8.25
2017-09-05T06:58:16.953Z,8.65
2017-09-05T07:00:45.816Z,7.50
2017-09-05T07:03:14.671Z,7.60
2017-09-05T07:05:43.520Z,8.25
2017-09-05T07:08:12.360Z,7.68
2017-09-05T07:10:41.208Z,6.30
2017-09-05T07:13:10.091Z,7.43
2017-09-05T07:15:38.597Z,7.35
2017-09-05T07:18:07.457Z,8.07
2017-09-05T07:20:36.302Z,7.62
2017-09-05T07:23:05.164Z,7.72
2017-09-05T07:25:34.017Z,6.57
2017-09-05T07:28:02.868Z,7.07
2017-09-05T07:30:31.759Z,6.68
2017-09-05T07:33:00.632Z,7.55
2017-09-05T07:35:29.472Z,7.20
2017-09-05T07:37:58.307Z,6.60
2017-09-05T07:40:27.159Z,8.32
2017-09-05T07:42:56.021Z,6.97
2017-09-05T07:45:24.889Z,7.80
2017-09-05T07:47:53.743Z,7.80
2017-09-05T07:50:22.609Z,8.05
2017-09-05T07:52:51.464Z,7.47
2017-09-05T07:55:20.413Z,7.07
2017-09-05T07:57:49.269Z,7.22
2017-09-05T08:00:18.108Z,6.57
2017-09-05T08:02:46.981Z,8.35
2017-09-05T08:05:15.839Z,7.10
2017-09-05T08:07:44.705Z,7.62
2017-09-05T08:10:13.568Z,7.55
2017-09-05T08:12:43.438Z,8.18
2017-09-05T08:15:12.293Z,7.87
2017-09-05T08:17:41.186Z,8.00
2017-09-05T08:20:10.070Z,9.02
2017-09-05T08:22:38.935Z,6.80
2017-09-05T08:25:07.791Z,6.65
2017-09-05T08:27:36.655Z,7.60
2017-09-05T08:30:05.519Z,8.07
2017-09-05T08:32:34.386Z,7.00
2017-09-05T08:35:04.010Z,7.10
2017-09-05T08:37:32.856Z,7.57
2017-09-05T08:40:01.725Z,7.00
2017-09-05T08:42:30.571Z,7.37
2017-09-05T08:44:59.435Z,6.87
2017-09-05T08:47:28.301Z,7.25
2017-09-05T08:49:57.161Z,7.07
2017-09-05T08:52:26.000Z,6.05
2017-09-05T08:54:54.858Z,5.57
2017-09-05T08:57:23.711Z,5.57
2017-09-05T08:59:52.571Z,4.85
2017-09-05T09:02:21.445Z,4.65
2017-09-05T09:04:50.296Z,4.80
2017-09-05T09:07:19.135Z,5.10
2017-09-05T09:09:48.003Z,4.85
2017-09-05T09:12:16.842Z,4.72
2017-09-05T09:14:45.695Z,4.37
2017-09-05T09:17:14.546Z,4.50
2017-09-05T09:19:43.387Z,4.90
2017-09-05T09:22:12.251Z,3.50
2017-09-05T09:24:41.636Z,4.60
2017-09-05T09:27:10.485Z,4.65
2017-09-05T09:29:39.362Z,4.60
2017-09-05T09:32:08.217Z,5.35
2017-09-05T09:34:37.076Z,5.40
2017-09-05T09:37:06.695Z,5.85
2017-09-05T09:39:35.553Z,5.28
2017-09-05T09:42:04.395Z,5.90
2017-09-05T09:44:33.267Z,4.75
2017-09-05T09:47:02.881Z,5.32
2017-09-05T09:49:31.549Z,5.35
2017-09-05T09:52:01.172Z,5.25
2017-09-05T09:54:30.801Z,5.18
2017-09-05T09:56:59.655Z,5.55
2017-09-05T09:59:28.507Z,4.87
2017-09-05T10:01:57.366Z,4.60
2017-09-05T10:04:26.223Z,5.62
2017-09-05T10:06:55.072Z,5.10
2017-09-05T10:09:23.930Z,5.55
2017-09-05T10:11:52.800Z,5.20
2017-09-05T10:14:21.646Z,4.82
2017-09-05T10:16:51.167Z,5.30
2017-09-05T10:19:20.008Z,4.55
2017-09-05T10:21:48.849Z,4.82
2017-09-05T10:24:17.706Z,4.53
2017-09-05T10:26:46.577Z,4.80
2017-09-05T10:29:15.444Z,5.50
2017-09-05T10:31:44.297Z,5.80
2017-09-05T10:34:13.156Z,5.50
2017-09-05T10:36:42.008Z,3.87
2017-09-05T10:39:10.865Z,5.55
2017-09-05T10:41:39.831Z,5.05
2017-09-05T10:44:08.693Z,4.90
2017-09-05T10:46:37.548Z,5.25
2017-09-05T10:49:06.423Z,4.40
2017-09-05T10:51:35.271Z,4.00
2017-09-05T10:54:04.907Z,4.90
2017-09-05T10:56:33.763Z,4.32
2017-09-05T10:59:02.314Z,4.22
2017-09-05T11:01:31.183Z,3.60
2017-09-05T11:04:00.029Z,4.40
2017-09-05T11:06:29.691Z,3.80
2017-09-05T11:08:58.549Z,3.95
2017-09-05T11:11:27.434Z,4.40
2017-09-05T11:13:56.288Z,4.32
2017-09-05T11:16:25.166Z,3.90
2017-09-05T11:18:54.022Z,3.65
2017-09-05T11:21:22.863Z,4.00
2017-09-05T11:23:51.726Z,4.78
2017-09-05T11:26:20.586Z,4.30
2017-09-05T11:28:49.252Z,5.22
2017-09-05T11:31:18.108Z,4.60
2017-09-05T11:33:46.969Z,4.90
2017-09-05T11:36:15.828Z,5.00
2017-09-05T11:38:44.679Z,4.37
2017-09-05T11:41:13.533Z,4.85
2017-09-05T11:43:42.382Z,3.80
2017-09-05T11:46:11.239Z,3.40
2017-09-05T11:48:40.096Z,4.10
2017-09-05T11:51:08.948Z,3.97
2017-09-05T11:53:37.805Z,3.80
2017-09-05T11:56:06.669Z,3.90
2017-09-05T11:58:35.529Z,3.50
2017-09-05T12:01:04.398Z,4.00
2017-09-05T12:03:33.254Z,3.35
2017-09-05T12:06:02.105Z,3.58
2017-09-05T12:08:30.960Z,3.78
2017-09-05T12:10:59.563Z,3.37
2017-09-05T12:13:28.159Z,3.43
2017-09-05T12:15:57.028Z,3.45
2017-09-05T12:18:25.893Z,3.50
2017-09-05T12:20:54.504Z,3.00
2017-09-05T12:23:23.074Z,3.80
2017-09-05T12:25:51.648Z,3.60
2017-09-05T12:28:20.227Z,4.47
2017-09-05T12:30:48.457Z,3.67
2017-09-05T12:33:16.376Z,3.90
2017-09-05T12:35:44.503Z,3.50
2017-09-05T12:38:12.404Z,3.30
2017-09-05T12:40:40.662Z,4.07
2017-09-05T12:43:08.548Z,3.07
2017-09-05T12:45:37.161Z,3.40
2017-09-05T12:48:05.769Z,3.00
2017-09-05T12:50:34.625Z,4.10
2017-09-05T12:53:10.572Z,3.35
2017-09-05T12:55:39.816Z,3.13
2017-09-05T12:58:08.410Z,2.70
2017-09-05T13:00:36.679Z,3.17
2017-09-05T13:03:05.270Z,3.40
2017-09-05T13:05:33.875Z,2.93
2017-09-05T13:08:02.459Z,3.10
2017-09-05T13:10:31.056Z,3.23
2017-09-05T13:12:59.694Z,3.70
2017-09-05T13:15:28.901Z,2.90
2017-09-05T13:17:57.484Z,3.20
2017-09-05T13:20:26.079Z,2.67
2017-09-05T13:22:55.433Z,3.33
2017-09-05T13:25:24.047Z,2.83
2017-09-05T13:27:52.644Z,2.80
2017-09-05T13:30:21.227Z,3.10
2017-09-05T13:32:49.814Z,2.80
2017-09-05T13:35:18.392Z,3.00
2017-09-05T13:37:46.994Z,2.70
2017-09-05T13:40:15.595Z,3.30
2017-09-05T13:42:44.219Z,3.70
2017-09-05T13:45:12.826Z,2.87
2017-09-05T13:47:41.413Z,3.27
2017-09-05T13:50:09.995Z,2.87
2017-09-05T13:52:39.315Z,3.63
2017-09-05T13:55:08.680Z,2.87
2017-09-05T13:57:37.264Z,2.83
2017-09-05T14:00:06.124Z,3.00
2017-09-05T14:02:34.713Z,2.43
2017-09-05T14:05:03.290Z,3.50
2017-09-05T14:07:31.877Z,2.80
2017-09-05T14:10:00.471Z,3.20
2017-09-05T14:12:28.877Z,3.37
2017-09-05T14:14:57.466Z,2.53
2017-09-05T14:17:26.062Z,3.10
2017-09-05T14:19:54.620Z,2.60
2017-09-05T14:22:23.196Z,3.60
2017-09-05T14:24:51.806Z,3.70
2017-09-05T14:27:20.396Z,3.17
2017-09-05T14:29:49.037Z,3.27
2017-09-05T14:32:17.620Z,3.00
2017-09-05T14:34:46.222Z,2.80
2017-09-05T14:37:14.833Z,3.10
2017-09-05T14:39:43.416Z,3.50
2017-09-05T14:42:11.995Z,3.40
2017-09-05T14:44:40.582Z,3.67
2017-09-05T14:47:09.238Z,3.80
2017-09-05T14:49:37.833Z,3.63
2017-09-05T14:52:06.429Z,3.10
2017-09-05T14:54:35.051Z,2.90
2017-09-05T14:57:03.640Z,3.57
2017-09-05T14:59:32.229Z,4.00
2017-09-05T15:02:01.589Z,2.90
2017-09-05T15:04:30.177Z,3.17
2017-09-05T15:06:58.782Z,3.17
2017-09-05T15:09:27.361Z,3.73
2017-09-05T15:11:55.947Z,2.90
2017-09-05T15:14:24.877Z,3.80
2017-09-05T15:16:53.473Z,2.70
2017-09-05T15:19:22.083Z,3.03
2017-09-05T15:21:50.651Z,3.40
2017-09-05T15:24:19.248Z,3.70
2017-09-05T15:26:47.851Z,3.80
2017-09-05T15:29:16.435Z,3.23
2017-09-05T15:31:45.033Z,3.90
2017-09-05T15:34:13.631Z,3.03
2017-09-05T15:36:42.221Z,3.47
2017-09-05T15:39:11.586Z,2.93
2017-09-05T15:41:40.168Z,3.60
2017-09-05T15:44:10.193Z,3.85
2017-09-05T15:46:38.805Z,3.00
2017-09-05T15:49:07.397Z,3.30
2017-09-05T15:51:36.015Z,3.80
2017-09-05T15:54:05.294Z,2.97
2017-09-05T15:56:33.887Z,3.47
2017-09-05T15:59:02.491Z,3.90
2017-09-05T16:01:31.394Z,3.57
2017-09-05T16:04:00.031Z,3.33
2017-09-05T16:06:29.901Z,3.07
2017-09-05T16:08:58.515Z,4.20
2017-09-05T16:11:27.120Z,3.57
2017-09-05T16:13:55.978Z,3.90
2017-09-05T16:16:24.850Z,3.70
2017-09-05T16:18:53.444Z,3.43
2017-09-05T16:21:22.052Z,3.33
2017-09-05T16:23:50.663Z,3.83
2017-09-05T16:26:19.524Z,3.70
2017-09-05T16:28:48.106Z,4.03
2017-09-05T16:31:16.953Z,3.12
2017-09-05T16:33:46.563Z,3.58
2017-09-05T16:36:15.408Z,3.17
2017-09-05T16:38:44.262Z,3.92
2017-09-05T16:41:13.116Z,3.72
2017-09-05T16:43:41.994Z,4.32
2017-09-05T16:46:10.852Z,3.75
2017-09-05T16:48:39.704Z,3.55
2017-09-05T16:51:08.584Z,3.33
2017-09-05T16:53:37.423Z,3.80
2017-09-05T16:56:06.279Z,3.50
2017-09-05T16:58:34.459Z,4.10
2017-09-05T17:01:04.084Z,3.58
2017-09-05T17:03:32.961Z,3.62
2017-09-05T17:06:01.762Z,3.15
2017-09-05T17:08:30.613Z,3.03
2017-09-05T17:10:59.481Z,3.30
2017-09-05T17:13:28.377Z,3.33
2017-09-05T17:15:57.244Z,3.62
2017-09-05T17:18:26.145Z,3.45
2017-09-05T17:20:54.983Z,3.50
2017-09-05T17:23:23.832Z,3.03
2017-09-05T17:25:52.696Z,3.72
2017-09-05T17:28:21.552Z,2.80
2017-09-05T17:30:50.446Z,3.65
2017-09-05T17:33:19.306Z,3.97
2017-09-05T17:35:48.174Z,3.33
2017-09-05T17:38:17.801Z,4.45
2017-09-05T17:40:46.662Z,3.95
2017-09-05T17:43:15.557Z,4.20
2017-09-05T17:45:44.446Z,4.15
2017-09-05T17:48:13.304Z,4.00
2017-09-05T17:50:42.156Z,3.75
2017-09-05T17:53:11.010Z,3.70
2017-09-05T17:55:39.995Z,4.10
2017-09-05T17:58:08.841Z,4.62
2017-09-05T18:00:37.731Z,4.53
2017-09-05T18:03:06.765Z,4.90
2017-09-05T18:05:35.612Z,5.03
2017-09-05T18:08:04.485Z,5.05
2017-09-05T18:10:34.610Z,5.15
2017-09-05T18:13:03.361Z,5.20
2017-09-05T18:15:32.225Z,4.55
2017-09-05T18:18:01.091Z,5.00
2017-09-05T18:20:30.112Z,6.37
2017-09-05T18:22:58.966Z,6.28
2017-09-05T18:25:27.830Z,6.50
2017-09-05T18:27:56.693Z,7.25
2017-09-05T18:30:25.554Z,6.40
2017-09-05T18:32:54.426Z,6.00
2017-09-05T18:35:23.293Z,6.50
2017-09-05T18:37:52.147Z,6.78
2017-09-05T18:40:21.012Z,6.10
2017-09-05T18:42:49.873Z,6.00
2017-09-05T18:45:18.744Z,7.12
2017-09-05T18:47:47.689Z,6.65
2017-09-05T18:50:16.542Z,6.43
2017-09-05T18:52:45.432Z,6.50
2017-09-05T18:55:16.096Z,6.90
2017-09-05T18:57:44.970Z,7.60
2017-09-05T19:00:13.812Z,7.45
2017-09-05T19:02:43.681Z,7.35
2017-09-05T19:05:12.595Z,7.30
2017-09-05T19:07:41.505Z,7.47
2017-09-05T19:10:10.490Z,7.45
2017-09-05T19:12:39.391Z,7.53
2017-09-05T19:15:08.564Z,8.02
2017-09-05T19:17:37.568Z,8.02
2017-09-05T19:20:07.347Z,8.55
2017-09-05T19:22:36.230Z,8.73
2017-09-05T19:25:05.092Z,8.38
2017-09-05T19:27:33.962Z,7.70
2017-09-05T19:30:02.840Z,8.30
2017-09-05T19:32:31.761Z,8.65
2017-09-05T19:35:00.634Z,7.53
2017-09-05T19:37:29.522Z,8.50
2017-09-05T19:39:58.384Z,8.70
2017-09-05T19:42:27.267Z,8.10
2017-09-05T19:44:56.259Z,8.02
2017-09-05T19:47:25.264Z,9.30
2017-09-05T19:49:54.122Z,8.88
2017-09-05T19:52:23.793Z,7.80
2017-09-05T19:54:52.816Z,7.60
2017-09-05T19:57:21.688Z,8.10
2017-09-05T19:59:50.568Z,7.72
2017-09-05T20:02:19.413Z,7.90
2017-09-05T20:04:48.401Z,8.38
2017-09-05T20:07:17.274Z,8.13
2017-09-05T20:09:46.132Z,7.57
2017-09-05T20:12:15.028Z,7.15
2017-09-05T20:14:43.884Z,8.05
2017-09-05T20:17:12.551Z,7.85
2017-09-05T20:19:41.422Z,9.13
2017-09-05T20:22:10.280Z,8.70
2017-09-05T20:24:39.146Z,8.38
2017-09-05T20:27:08.148Z,8.48
2017-09-05T20:29:36.838Z,8.98
2017-09-05T20:32:05.739Z,8.65
2017-09-05T20:34:34.672Z,7.93
2017-09-05T20:37:03.336Z,7.22
2017-09-05T20:39:32.197Z,7.50
2017-09-05T20:42:01.052Z,8.18
2017-09-05T20:44:30.684Z,7.85
2017-09-05T20:46:59.544Z,9.25
2017-09-05T20:49:28.405Z,7.50
2017-09-05T20:51:57.259Z,7.75
2017-09-05T20:54:26.120Z,8.63
2017-09-05T20:56:55.000Z,8.13
2017-09-05T20:59:23.861Z,7.47
2017-09-05T21:01:53.565Z,6.93
2017-09-05T21:04:22.410Z,7.05
2017-09-05T21:06:51.273Z,7.50
2017-09-05T21:09:20.139Z,6.97
2017-09-05T21:11:49.003Z,7.70
2017-09-05T21:14:17.867Z,7.40
2017-09-05T21:16:46.709Z,7.40
2017-09-05T21:19:15.569Z,6.80
2017-09-05T21:21:45.179Z,6.22
2017-09-05T21:24:14.035Z,6.90
2017-09-05T21:26:42.896Z,6.70
2017-09-05T21:29:11.749Z,7.37
2017-09-05T21:31:40.609Z,7.25
2017-09-05T21:34:09.470Z,6.93
2017-09-05T21:36:38.343Z,7.35
2017-09-05T21:39:07.526Z,7.07
2017-09-05T21:41:36.372Z,6.47
2017-09-05T21:44:05.253Z,7.15
2017-09-05T21:46:34.183Z,7.10
2017-09-05T21:49:03.034Z,6.47
2017-09-05T21:51:31.884Z,6.30
2017-09-05T21:54:00.741Z,6.10
2017-09-05T21:56:29.609Z,6.47
2017-09-05T21:58:58.481Z,7.18
2017-09-05T22:01:28.344Z,6.80
2017-09-05T22:03:57.234Z,6.85
2017-09-05T22:06:26.080Z,7.07
2017-09-05T22:08:54.920Z,6.78
2017-09-05T22:11:23.773Z,7.20
2017-09-05T22:13:58.158Z,6.62
2017-09-05T22:16:32.399Z,7.03
2017-09-05T22:19:06.659Z,6.60
2017-09-05T22:21:35.509Z,6.93
2017-09-05T22:24:04.932Z,6.43
2017-09-05T22:26:39.232Z,7.40
2017-09-05T22:29:09.761Z,6.93
2017-09-05T22:31:38.616Z,6.47
2017-09-05T22:34:07.741Z,6.55
2017-09-05T22:36:36.589Z,7.18
2017-09-05T22:39:06.219Z,6.65
2017-09-05T22:41:35.072Z,6.47
2017-09-05T22:44:03.920Z,6.37
2017-09-05T22:46:32.761Z,7.10
2017-09-05T22:49:01.609Z,6.45
2017-09-05T22:51:30.460Z,7.68
2017-09-05T22:53:59.312Z,6.45
2017-09-05T22:56:28.170Z,6.35
2017-09-05T22:58:57.027Z,7.35
2017-09-05T23:01:26.651Z,7.25
2017-09-05T23:03:55.496Z,7.20
2017-09-05T23:06:24.356Z,6.80
2017-09-05T23:08:53.225Z,6.60
2017-09-05T23:11:21.884Z,6.28
2017-09-05T23:13:50.746Z,7.05
2017-09-05T23:16:19.602Z,6.80
2017-09-05T23:18:48.587Z,7.50
2017-09-05T23:21:17.433Z,7.90
2017-09-05T23:23:46.287Z,6.87
2017-09-05T23:26:15.122Z,6.65
2017-09-05T23:28:43.964Z,7.05
2017-09-05T23:31:12.843Z,7.20
2017-09-05T23:33:41.708Z,6.75
2017-09-05T23:36:10.551Z,7.00
2017-09-05T23:38:39.392Z,7.05
2017-09-05T23:41:08.231Z,7.03
2017-09-05T23:43:37.101Z,6.40
2017-09-05T23:46:05.959Z,7.55
2017-09-05T23:48:34.812Z,7.57
2017-09-05T23:51:03.653Z,7.75
2017-09-05T23:53:32.498Z,8.10
2017-09-05T23:56:01.364Z,7.22
2017-09-05T23:58:30.218Z,7.65
